Time;durP1;ratioP1;P1;durP2;ratioP2;P2;SDS_P1;SDS_P2;PMS_P1;PMS_P2;Temp;Humidity;BMP_temperature;BMP_pressure;BME280_temperature;BME280_humidity;BME280_pressure;Samples;Min_cycle;Max_cycle;Signal;HPM_P1;HPM_P2
2021/08/27 00:01:30;;;;;;;4.73;1.57;;;24.90;51.20;;;;;;4985557;28;20482;-65
2021/08/27 00:03:56;;;;;;;4.07;1.70;;;25.00;51.10;;;;;;4988697;28;20443;-66
2021/08/27 00:06:22;;;;;;;2.60;1.40;;;25.10;50.80;;;;;;4990733;28;20395;-66
2021/08/27 00:08:47;;;;;;;2.95;1.50;;;25.10;50.60;;;;;;4989880;28;20396;-64
2021/08/27 00:11:16;;;;;;;2.50;1.33;;;25.00;50.40;;;;;;4995149;28;20412;-65
2021/08/27 00:13:43;;;;;;;2.38;1.40;;;25.00;50.30;;;;;;4996372;28;20474;-65
2021/08/27 00:16:09;;;;;;;3.03;1.50;;;25.10;50.10;;;;;;4988496;28;20397;-65
2021/08/27 00:18:34;;;;;;;2.10;1.50;;;25.10;50.20;;;;;;4989549;28;20415;-66
2021/08/27 00:21:00;;;;;;;2.30;1.33;;;25.10;49.90;;;;;;4989524;28;20503;-65
2021/08/27 00:23:26;;;;;;;2.43;1.50;;;25.10;49.90;;;;;;4994057;28;20813;-66
2021/08/27 00:25:52;;;;;;;1.98;1.40;;;25.10;49.80;;;;;;4989818;28;20427;-66
2021/08/27 00:28:17;;;;;;;3.03;1.30;;;25.10;49.90;;;;;;4994759;28;20404;-65
2021/08/27 00:30:43;;;;;;;2.42;1.45;;;25.10;49.90;;;;;;4989040;28;20529;-65
2021/08/27 00:33:09;;;;;;;2.70;1.43;;;25.10;49.90;;;;;;5001040;28;20838;-66
2021/08/27 00:35:34;;;;;;;2.38;1.40;;;25.10;49.70;;;;;;5021504;28;20414;-65
2021/08/27 00:38:00;;;;;;;3.03;1.73;;;25.10;49.90;;;;;;4989623;28;20410;-66
2021/08/27 00:40:26;;;;;;;2.60;1.30;;;25.10;49.90;;;;;;4988712;28;20395;-65
2021/08/27 00:42:51;;;;;;;1.90;1.50;;;25.10;50.00;;;;;;4991973;28;20444;-65
2021/08/27 00:45:17;;;;;;;2.30;1.58;;;25.10;50.10;;;;;;4989291;28;20481;-66
2021/08/27 00:47:43;;;;;;;2.42;1.50;;;25.10;50.10;;;;;;4989239;28;20380;-64
2021/08/27 00:50:09;;;;;;;2.58;1.60;;;25.10;50.10;;;;;;4987844;28;20488;-66
2021/08/27 00:52:37;;;;;;;2.25;1.40;;;25.10;50.00;;;;;;5020354;28;20802;-65
2021/08/27 00:55:03;;;;;;;1.90;1.27;;;25.10;49.90;;;;;;4989246;28;20426;-65
2021/08/27 00:57:29;;;;;;;2.13;1.50;;;25.10;49.90;;;;;;5023247;28;20913;-66
2021/08/27 00:59:54;;;;;;;2.50;1.30;;;25.10;49.90;;;;;;4988699;28;20394;-65
2021/08/27 01:02:20;;;;;;;2.45;1.50;;;25.10;49.80;;;;;;4986028;28;20414;-66
2021/08/27 01:04:48;;;;;;;2.43;1.40;;;25.00;49.60;;;;;;4989664;28;20484;-66
2021/08/27 01:07:27;;;;;;;2.22;1.42;;;25.10;49.60;;;;;;4989616;28;20885;-65
2021/08/27 01:10:16;;;;;;;3.10;1.42;;;25.00;49.50;;;;;;4994796;28;20400;-65
2021/08/27 01:13:15;;;;;;;2.53;1.50;;;25.10;49.80;;;;;;4990426;28;20875;-65
2021/08/27 01:15:51;;;;;;;2.00;1.30;;;25.10;49.80;;;;;;5019476;28;20418;-65
2021/08/27 01:18:27;;;;;;;2.90;1.50;;;25.10;49.80;;;;;;4987916;28;20413;-66
2021/08/27 01:21:18;;;;;;;2.58;1.40;;;25.00;49.70;;;;;;4993394;28;20492;-65
2021/08/27 01:23:54;;;;;;;1.95;1.30;;;25.10;49.80;;;;;;4993100;28;20446;-66
2021/08/27 01:26:24;;;;;;;1.90;1.25;;;25.10;49.90;;;;;;4986752;28;20393;-65
2021/08/27 01:28:50;;;;;;;2.00;1.20;;;25.10;49.80;;;;;;4991084;28;20751;-66
2021/08/27 01:31:23;;;;;;;1.90;1.37;;;25.10;49.90;;;;;;4987509;28;20431;-65
2021/08/27 01:34:13;;;;;;;1.88;1.20;;;25.10;49.90;;;;;;4985904;28;20394;-65
2021/08/27 01:36:40;;;;;;;1.67;1.20;;;25.10;49.90;;;;;;4988259;28;20484;-64
2021/08/27 01:39:08;;;;;;;1.83;1.30;;;25.10;49.80;;;;;;4990314;28;20401;-65
2021/08/27 01:41:35;;;;;;;2.00;1.30;;;25.00;49.80;;;;;;4992683;28;20386;-66
2021/08/27 01:44:06;;;;;;;1.90;1.30;;;25.00;49.50;;;;;;4994448;28;20924;-66
2021/08/27 01:46:35;;;;;;;1.83;1.10;;;25.00;49.80;;;;;;4996987;28;20472;-66
2021/08/27 01:49:06;;;;;;;2.03;1.13;;;25.00;49.70;;;;;;4989600;28;20399;-66
2021/08/27 01:51:32;;;;;;;1.90;1.20;;;25.00;49.70;;;;;;4993082;28;20476;-66
2021/08/27 01:54:00;;;;;;;2.25;1.33;;;25.00;49.70;;;;;;4991351;28;20410;-65
2021/08/27 01:56:27;;;;;;;2.08;1.20;;;25.00;49.70;;;;;;4996521;28;20870;-66
2021/08/27 01:58:53;;;;;;;2.22;1.20;;;25.00;49.80;;;;;;4998338;28;20403;-66
2021/08/27 02:01:22;;;;;;;1.85;1.20;;;25.00;49.60;;;;;;4993483;28;20394;-65
2021/08/27 02:03:49;;;;;;;1.60;1.13;;;24.90;49.70;;;;;;5001007;28;20426;-64
2021/08/27 02:06:15;;;;;;;2.00;1.10;;;25.00;49.80;;;;;;4991593;28;20441;-65
2021/08/27 02:08:41;;;;;;;1.73;1.20;;;25.00;49.70;;;;;;4992380;28;20901;-66
2021/08/27 02:17:09;;;;;;;1.77;1.10;;;25.00;49.80;;;;;;4934354;29;20482;-69
2021/08/27 02:19:36;;;;;;;1.70;1.10;;;25.10;49.80;;;;;;4937190;29;20413;-69
2021/08/27 02:22:05;;;;;;;2.20;1.23;;;25.10;49.70;;;;;;4935496;29;20827;-69
2021/08/27 02:24:35;;;;;;;2.00;1.10;;;25.00;49.70;;;;;;4935797;29;20490;-69
2021/08/27 02:27:03;;;;;;;1.80;1.10;;;25.00;49.60;;;;;;4936497;29;20395;-68
2021/08/27 02:29:33;;;;;;;2.03;1.30;;;25.00;49.70;;;;;;4936445;29;20462;-66
2021/08/27 02:32:01;;;;;;;2.28;1.17;;;25.00;49.70;;;;;;4951473;29;20420;-67
2021/08/27 02:34:29;;;;;;;2.08;1.10;;;25.00;49.60;;;;;;4935628;29;20442;-66
2021/08/27 02:36:56;;;;;;;1.77;1.20;;;25.00;49.70;;;;;;4936845;29;20489;-67
2021/08/27 02:39:24;;;;;;;2.50;1.50;;;25.00;49.80;;;;;;4936095;29;20455;-66
2021/08/27 02:41:52;;;;;;;2.15;1.20;;;25.00;49.80;;;;;;4936422;29;20800;-66
2021/08/27 02:44:17;;;;;;;1.80;1.23;;;25.00;49.80;;;;;;4935124;29;20427;-66
2021/08/27 02:46:43;;;;;;;1.63;1.10;;;25.00;49.80;;;;;;4936627;29;20407;-67
2021/08/27 02:49:08;;;;;;;1.43;1.00;;;25.00;49.80;;;;;;4935945;29;20864;-66
2021/08/27 02:52:02;;;;;;;1.85;1.10;;;25.00;49.80;;;;;;4936423;29;20415;-66
2021/08/27 02:54:31;;;;;;;1.60;1.00;;;25.00;49.70;;;;;;4936453;29;20431;-69
2021/08/27 02:57:03;;;;;;;2.17;1.13;;;25.00;49.70;;;;;;4936288;29;20391;-69
2021/08/27 02:59:29;;;;;;;2.10;1.20;;;25.00;49.70;;;;;;4936413;29;20449;-69
2021/08/27 03:01:56;;;;;;;2.50;1.20;;;25.00;49.70;;;;;;4950917;29;20438;-69
2021/08/27 03:04:46;;;;;;;1.87;1.10;;;25.10;49.80;;;;;;4936278;29;20494;-69
2021/08/27 03:07:15;;;;;;;2.80;1.10;;;24.90;49.80;;;;;;4950515;28;20819;-68
2021/08/27 03:09:59;;;;;;;1.92;1.23;;;24.90;50.00;;;;;;4936248;29;20396;-69
2021/08/27 03:13:01;;;;;;;2.70;1.30;;;24.90;50.40;;;;;;4935938;29;20404;-69
2021/08/27 03:15:40;;;;;;;1.70;1.00;;;25.00;50.30;;;;;;4950501;29;20458;-68
2021/08/27 03:18:56;;;;;;;2.83;1.13;;;25.00;50.40;;;;;;4934536;29;20435;-69
2021/08/27 03:21:48;;;;;;;5.30;1.20;;;25.00;50.50;;;;;;4892269;29;20476;-68
2021/08/27 03:24:14;;;;;;;2.28;1.00;;;25.00;51.00;;;;;;4877118;29;20520;-69
2021/08/27 03:26:42;;;;;;;2.10;1.07;;;25.00;51.00;;;;;;4914870;29;20498;-69
2021/08/27 03:29:12;;;;;;;3.33;1.10;;;25.00;50.90;;;;;;4935359;29;20408;-69
2021/08/27 03:31:38;;;;;;;2.10;1.20;;;25.10;50.80;;;;;;4935706;29;20388;-69
2021/08/27 03:34:04;;;;;;;2.22;1.20;;;25.10;51.00;;;;;;4934214;29;20419;-68
2021/08/27 03:36:31;;;;;;;2.30;1.02;;;25.10;51.30;;;;;;4935153;29;20407;-69
2021/08/27 03:38:59;;;;;;;1.95;1.20;;;25.10;50.80;;;;;;4935642;29;20399;-69
2021/08/27 03:41:28;;;;;;;3.30;1.13;;;25.10;50.90;;;;;;4935201;29;20510;-69
2021/08/27 03:43:55;;;;;;;2.10;1.10;;;25.10;51.40;;;;;;4935512;29;20420;-68
2021/08/27 03:46:22;;;;;;;2.70;1.20;;;25.10;51.40;;;;;;4935436;29;20419;-69
2021/08/27 03:48:49;;;;;;;3.15;1.00;;;25.10;51.30;;;;;;4935269;29;20400;-69
2021/08/27 03:51:16;;;;;;;1.80;0.90;;;25.20;51.00;;;;;;4933510;29;20411;-69
2021/08/27 03:53:44;;;;;;;2.08;0.90;;;25.10;50.90;;;;;;4935381;29;20491;-69
2021/08/27 03:56:10;;;;;;;1.83;0.90;;;25.10;50.60;;;;;;4935289;29;20407;-66
2021/08/27 03:58:39;;;;;;;2.30;0.90;;;25.10;50.70;;;;;;4934555;29;20411;-67
2021/08/27 04:01:05;;;;;;;2.13;1.00;;;25.10;50.30;;;;;;4932529;29;20503;-67
2021/08/27 04:03:32;;;;;;;2.50;0.90;;;25.10;51.00;;;;;;4933702;29;20518;-67
2021/08/27 04:06:08;;;;;;;3.78;1.10;;;25.10;51.60;;;;;;4935152;29;20403;-67
2021/08/27 04:08:38;;;;;;;2.60;0.98;;;25.10;51.50;;;;;;4935011;29;20759;-67
2021/08/27 04:11:05;;;;;;;3.45;0.93;;;25.10;51.40;;;;;;4933355;29;20396;-67
2021/08/27 04:13:31;;;;;;;3.33;0.90;;;25.10;51.20;;;;;;4934807;29;20400;-67
2021/08/27 04:15:56;;;;;;;2.20;0.90;;;25.10;51.10;;;;;;4930037;29;20424;-67
2021/08/27 04:18:22;;;;;;;2.45;1.00;;;25.20;51.00;;;;;;4918587;29;20757;-67
2021/08/27 04:20:48;;;;;;;1.50;0.80;;;25.10;50.80;;;;;;4914808;29;20393;-67
2021/08/27 04:23:13;;;;;;;1.75;0.80;;;25.10;50.90;;;;;;4915382;29;20424;-67
2021/08/27 04:25:39;;;;;;;1.80;1.10;;;25.10;50.80;;;;;;4915933;29;20397;-68
2021/08/27 04:28:05;;;;;;;1.88;0.90;;;25.20;50.70;;;;;;4915665;29;20806;-67
2021/08/27 04:30:32;;;;;;;1.30;0.70;;;25.20;50.70;;;;;;4914496;29;20806;-67
2021/08/27 04:32:58;;;;;;;2.07;0.90;;;25.20;50.60;;;;;;4914310;29;20964;-67
2021/08/27 04:35:24;;;;;;;2.45;0.90;;;25.20;50.60;;;;;;4915210;29;20480;-66
2021/08/27 04:37:50;;;;;;;1.75;0.90;;;25.20;50.70;;;;;;4915739;29;20485;-68
2021/08/27 04:40:15;;;;;;;1.60;0.87;;;25.20;50.60;;;;;;4915451;29;20416;-67
2021/08/27 04:42:41;;;;;;;2.92;0.90;;;25.20;50.50;;;;;;4915470;29;20413;-67
2021/08/27 04:45:08;;;;;;;1.90;0.70;;;25.20;50.60;;;;;;4916353;29;20829;-66
2021/08/27 04:47:33;;;;;;;1.65;0.70;;;25.10;50.40;;;;;;4915423;29;20445;-68
2021/08/27 04:49:59;;;;;;;2.10;0.80;;;25.20;50.50;;;;;;4915531;29;20409;-68
2021/08/27 04:52:25;;;;;;;2.33;0.75;;;25.20;50.70;;;;;;4914231;29;20401;-67
2021/08/27 04:54:51;;;;;;;5.07;1.00;;;25.20;50.80;;;;;;4914227;29;20429;-68
2021/08/27 04:57:16;;;;;;;2.05;0.70;;;25.20;50.70;;;;;;4913623;29;20765;-68
2021/08/27 04:59:46;;;;;;;3.10;0.80;;;25.20;50.70;;;;;;4915382;29;20870;-67
2021/08/27 05:02:13;;;;;;;1.50;0.70;;;25.20;50.70;;;;;;4914008;29;20405;-68
2021/08/27 05:04:39;;;;;;;2.27;0.70;;;25.20;50.70;;;;;;4915379;29;20672;-68
2021/08/27 05:07:05;;;;;;;2.10;0.60;;;25.20;50.60;;;;;;4914026;29;20920;-67
2021/08/27 05:09:31;;;;;;;1.33;0.70;;;25.20;50.60;;;;;;4914859;29;20401;-68
2021/08/27 05:11:56;;;;;;;2.13;0.70;;;25.20;50.50;;;;;;4915317;29;20408;-68
2021/08/27 05:14:22;;;;;;;1.48;0.90;;;25.20;50.60;;;;;;4917517;29;20457;-68
2021/08/27 05:16:48;;;;;;;2.65;0.80;;;25.20;50.60;;;;;;4917668;29;20814;-67
2021/08/27 05:19:14;;;;;;;1.30;0.70;;;25.20;50.50;;;;;;4918961;29;20407;-67
2021/08/27 05:21:40;;;;;;;2.33;0.63;;;25.20;50.50;;;;;;4917837;29;20778;-68
2021/08/27 05:24:06;;;;;;;1.33;0.67;;;25.20;50.30;;;;;;4918583;29;20436;-69
2021/08/27 05:26:33;;;;;;;1.27;0.60;;;25.20;50.30;;;;;;4919227;29;20405;-68
2021/08/27 05:28:59;;;;;;;1.17;0.63;;;25.20;50.40;;;;;;4918833;29;20444;-67
2021/08/27 05:31:24;;;;;;;1.42;0.60;;;25.20;50.40;;;;;;4918240;29;20439;-68
2021/08/27 05:33:50;;;;;;;2.63;0.60;;;25.20;50.40;;;;;;4919497;29;20916;-67
2021/08/27 05:36:16;;;;;;;2.17;0.70;;;25.20;50.50;;;;;;4919125;29;20428;-68
2021/08/27 05:38:42;;;;;;;1.30;0.60;;;25.20;50.50;;;;;;4917676;29;20483;-67
2021/08/27 05:41:08;;;;;;;1.35;0.50;;;25.20;50.50;;;;;;4917603;29;20439;-67
2021/08/27 05:43:34;;;;;;;2.15;0.80;;;25.20;50.20;;;;;;4918464;29;20464;-67
2021/08/27 05:46:00;;;;;;;2.07;0.60;;;25.20;50.50;;;;;;4918824;29;20522;-67
2021/08/27 05:48:25;;;;;;;1.63;0.50;;;25.20;50.50;;;;;;4918577;29;20401;-67
2021/08/27 05:50:51;;;;;;;2.67;0.50;;;25.20;50.50;;;;;;4918466;29;20953;-67
2021/08/27 05:53:17;;;;;;;3.27;0.60;;;25.20;51.00;;;;;;4917886;29;20460;-67
2021/08/27 05:55:42;;;;;;;3.28;0.85;;;25.20;50.30;;;;;;4918287;29;20445;-67
2021/08/27 05:58:08;;;;;;;2.67;0.77;;;25.20;50.00;;;;;;4918429;29;20483;-67
2021/08/27 06:00:34;;;;;;;2.60;0.60;;;25.20;49.70;;;;;;4918408;29;20409;-68
2021/08/27 06:03:00;;;;;;;2.10;0.70;;;25.30;49.70;;;;;;4917145;29;20425;-67
2021/08/27 06:05:26;;;;;;;1.85;0.60;;;25.20;49.50;;;;;;4917935;29;20393;-67
2021/08/27 06:07:51;;;;;;;2.40;0.60;;;25.20;49.60;;;;;;4918302;29;20415;-68
2021/08/27 06:10:17;;;;;;;1.97;0.60;;;25.20;49.70;;;;;;4917849;29;20753;-67
2021/08/27 06:12:43;;;;;;;2.90;0.60;;;25.20;49.70;;;;;;4918055;29;20401;-68
2021/08/27 06:15:11;;;;;;;1.65;0.90;;;25.20;49.80;;;;;;4918039;29;20421;-67
2021/08/27 06:17:36;;;;;;;1.30;0.50;;;25.20;49.70;;;;;;4917989;29;20409;-67
2021/08/27 06:20:03;;;;;;;1.50;0.50;;;25.20;49.70;;;;;;4917876;29;20456;-67
2021/08/27 06:22:29;;;;;;;2.47;0.55;;;25.20;49.70;;;;;;4916415;29;20927;-67
2021/08/27 06:24:55;;;;;;;1.10;0.50;;;25.20;49.70;;;;;;4916134;29;20503;-69
2021/08/27 06:27:20;;;;;;;1.13;0.50;;;25.10;49.70;;;;;;4917355;29;20446;-68
2021/08/27 06:29:46;;;;;;;1.00;0.60;;;25.10;49.80;;;;;;4917746;29;20405;-67
2021/08/27 06:32:12;;;;;;;1.13;0.60;;;25.10;49.70;;;;;;4916469;29;20418;-67
2021/08/27 06:34:37;;;;;;;1.95;0.60;;;25.10;49.70;;;;;;4917966;29;20405;-68
2021/08/27 06:37:03;;;;;;;1.90;0.60;;;25.10;49.70;;;;;;4916377;29;20507;-67
2021/08/27 06:39:29;;;;;;;1.50;0.50;;;25.10;49.80;;;;;;4917342;29;20415;-67
2021/08/27 06:41:55;;;;;;;2.00;0.53;;;25.10;49.70;;;;;;4916334;29;20410;-67
2021/08/27 06:44:20;;;;;;;1.45;0.43;;;25.10;49.70;;;;;;4917707;29;20498;-67
2021/08/27 06:46:46;;;;;;;1.63;0.60;;;25.10;49.60;;;;;;4916140;29;20889;-68
2021/08/27 06:49:13;;;;;;;1.30;0.63;;;25.20;49.70;;;;;;4917590;29;20417;-67
2021/08/27 06:51:41;;;;;;;1.17;0.60;;;25.10;49.70;;;;;;4917309;29;20401;-67
2021/08/27 06:54:07;;;;;;;1.33;0.52;;;25.10;49.70;;;;;;4917472;29;20402;-67
2021/08/27 06:56:32;;;;;;;1.55;0.73;;;25.10;49.70;;;;;;4917599;29;20401;-67
2021/08/27 06:58:58;;;;;;;2.57;0.80;;;25.10;49.60;;;;;;4917228;29;20404;-67
2021/08/27 07:01:25;;;;;;;2.63;0.80;;;25.10;49.60;;;;;;4915421;29;20420;-67
2021/08/27 07:03:51;;;;;;;3.55;0.95;;;25.10;50.00;;;;;;4917565;29;20568;-66
2021/08/27 07:06:16;;;;;;;2.75;0.90;;;25.10;50.10;;;;;;4916037;29;20485;-67
2021/08/27 07:08:42;;;;;;;2.63;0.93;;;25.00;50.30;;;;;;4915997;29;20402;-67
2021/08/27 07:11:08;;;;;;;3.33;1.10;;;25.00;50.20;;;;;;4916993;29;20424;-67
2021/08/27 07:13:34;;;;;;;2.63;0.88;;;25.00;50.70;;;;;;4916676;29;20405;-67
2021/08/27 07:15:59;;;;;;;2.57;0.70;;;25.00;50.60;;;;;;4916935;29;20420;-67
2021/08/27 07:18:26;;;;;;;1.88;0.80;;;25.00;50.50;;;;;;4915819;29;20413;-67
2021/08/27 07:20:53;;;;;;;2.97;1.00;;;25.10;50.30;;;;;;4917077;29;20573;-67
2021/08/27 07:23:19;;;;;;;2.55;0.85;;;25.10;50.50;;;;;;4916215;29;20541;-67
2021/08/27 07:25:45;;;;;;;1.92;0.70;;;25.10;50.50;;;;;;4916929;29;20507;-68
2021/08/27 07:28:11;;;;;;;2.10;0.90;;;25.10;50.40;;;;;;4916762;29;20409;-67
2021/08/27 07:30:39;;;;;;;1.38;0.55;;;25.10;50.40;;;;;;4921664;29;20472;-67
2021/08/27 07:33:04;;;;;;;2.05;0.80;;;25.10;50.40;;;;;;4924251;29;20428;-68
2021/08/27 07:35:30;;;;;;;1.43;0.70;;;25.10;50.30;;;;;;4916241;29;20449;-68
2021/08/27 07:37:56;;;;;;;1.77;0.70;;;25.10;50.40;;;;;;4915151;29;20477;-67
2021/08/27 07:40:22;;;;;;;1.37;0.60;;;25.10;50.40;;;;;;4916936;29;20429;-67
2021/08/27 07:42:47;;;;;;;2.75;0.77;;;25.10;50.30;;;;;;4918757;29;20786;-67
2021/08/27 07:45:15;;;;;;;1.60;0.70;;;25.10;50.30;;;;;;4925564;29;20415;-67
2021/08/27 07:47:44;;;;;;;1.67;0.68;;;25.10;50.30;;;;;;4930972;29;20399;-67
2021/08/27 07:50:12;;;;;;;2.03;0.70;;;25.10;50.30;;;;;;4934122;29;20408;-67
2021/08/27 07:52:38;;;;;;;1.50;0.60;;;25.10;50.30;;;;;;4934118;29;20411;-67
2021/08/27 07:55:05;;;;;;;1.67;0.60;;;25.10;50.30;;;;;;4933896;29;20407;-67
2021/08/27 07:57:31;;;;;;;1.42;0.73;;;25.10;50.30;;;;;;4934937;29;20479;-67
2021/08/27 07:59:57;;;;;;;1.27;0.60;;;25.10;50.30;;;;;;4935189;29;20403;-67
2021/08/27 08:02:22;;;;;;;1.43;0.70;;;25.10;50.10;;;;;;4935381;29;20951;-67
2021/08/27 08:04:48;;;;;;;1.73;0.73;;;25.10;50.10;;;;;;4935329;29;20404;-67
2021/08/27 08:07:14;;;;;;;1.83;0.60;;;25.10;50.10;;;;;;4935314;29;20530;-68
2021/08/27 08:09:39;;;;;;;1.67;0.60;;;25.10;50.00;;;;;;4934486;29;20707;-67
2021/08/27 08:12:05;;;;;;;2.13;0.80;;;25.10;50.00;;;;;;4935139;29;20392;-67
2021/08/27 08:14:31;;;;;;;1.10;0.70;;;25.10;50.10;;;;;;4933968;29;20436;-68
2021/08/27 08:16:57;;;;;;;1.27;0.70;;;25.10;50.20;;;;;;4934952;29;20767;-68
2021/08/27 08:19:22;;;;;;;1.30;0.60;;;25.10;50.00;;;;;;4933298;29;20412;-67
2021/08/27 08:21:48;;;;;;;1.97;1.00;;;25.10;49.90;;;;;;4934732;29;20399;-68
2021/08/27 08:24:14;;;;;;;2.70;0.80;;;25.10;49.90;;;;;;4934603;29;20471;-67
2021/08/27 08:26:41;;;;;;;2.27;0.80;;;25.10;50.40;;;;;;4934372;29;20423;-67
2021/08/27 08:29:07;;;;;;;1.80;0.77;;;25.10;50.50;;;;;;4934872;29;20466;-67
2021/08/27 08:31:33;;;;;;;1.53;0.70;;;25.10;50.40;;;;;;4932308;29;20812;-67
2021/08/27 08:33:59;;;;;;;1.95;0.70;;;25.10;50.40;;;;;;4934825;29;20403;-68
2021/08/27 08:36:25;;;;;;;2.13;0.75;;;25.10;50.20;;;;;;4935371;29;20612;-69
2021/08/27 08:38:52;;;;;;;1.83;0.80;;;25.10;50.40;;;;;;4935343;29;20462;-68
2021/08/27 08:41:19;;;;;;;2.08;0.80;;;25.10;50.40;;;;;;4934423;29;20486;-68
2021/08/27 08:43:46;;;;;;;3.08;0.75;;;25.10;50.30;;;;;;4934163;29;20451;-69
2021/08/27 08:46:13;;;;;;;1.40;0.65;;;25.10;51.00;;;;;;4934396;29;20875;-67
2021/08/27 08:48:43;;;;;;;3.03;0.80;;;25.10;51.10;;;;;;4934531;29;20410;-67
2021/08/27 08:51:10;;;;;;;2.72;0.88;;;25.00;51.00;;;;;;4934516;29;20398;-67
2021/08/27 08:53:40;;;;;;;2.53;0.73;;;25.10;50.90;;;;;;4934003;29;20457;-68
2021/08/27 08:56:08;;;;;;;2.22;0.70;;;25.10;50.90;;;;;;4934399;29;20388;-68
2021/08/27 08:58:34;;;;;;;1.88;0.80;;;25.10;50.90;;;;;;4934489;29;20400;-68
2021/08/27 09:01:00;;;;;;;2.53;0.90;;;25.10;50.90;;;;;;4934439;29;20405;-69
2021/08/27 09:03:26;;;;;;;1.80;0.93;;;25.10;50.90;;;;;;4933833;29;20887;-67
2021/08/27 09:05:52;;;;;;;2.08;0.70;;;25.10;51.00;;;;;;4934452;29;20415;-67
2021/08/27 09:08:43;;;;;;;2.45;0.70;;;25.10;50.90;;;;;;4934101;29;20391;-67
2021/08/27 09:11:30;;;;;;;3.05;0.90;;;25.10;50.80;;;;;;4932939;29;20419;-67
2021/08/27 09:13:59;;;;;;;1.65;0.77;;;25.10;50.80;;;;;;4934021;28;20408;-66
2021/08/27 09:16:31;;;;;;;1.73;0.60;;;25.10;50.70;;;;;;4932843;29;20432;-67
2021/08/27 09:18:57;;;;;;;2.00;0.70;;;25.10;51.00;;;;;;4934272;29;20411;-67
2021/08/27 09:21:34;;;;;;;1.90;0.80;;;25.10;51.00;;;;;;4933954;29;20391;-67
2021/08/27 09:24:12;;;;;;;2.40;0.80;;;25.10;50.90;;;;;;4933999;29;20427;-67
2021/08/27 09:26:39;;;;;;;2.15;0.73;;;25.10;50.80;;;;;;4934052;29;20391;-67
2021/08/27 09:29:05;;;;;;;3.83;0.82;;;25.00;51.30;;;;;;4934225;29;20399;-67
2021/08/27 09:31:36;;;;;;;3.97;1.00;;;25.10;51.50;;;;;;4933437;29;20402;-67
2021/08/27 09:34:02;;;;;;;3.33;1.20;;;25.10;51.90;;;;;;4934020;29;20404;-67
2021/08/27 09:36:32;;;;;;;4.80;1.23;;;25.10;53.20;;;;;;4934074;29;20396;-67
2021/08/27 09:39:11;;;;;;;8.07;1.10;;;25.20;53.50;;;;;;4934035;29;20411;-67
2021/08/27 09:41:37;;;;;;;4.43;1.10;;;25.20;53.10;;;;;;4933664;29;20399;-67
2021/08/27 09:44:04;;;;;;;3.80;1.00;;;25.20;53.50;;;;;;4933861;29;20420;-67
2021/08/27 09:46:43;;;;;;;4.40;1.17;;;25.20;54.70;;;;;;4933966;29;20418;-67
2021/08/27 09:49:37;;;;;;;3.07;1.10;;;25.30;54.50;;;;;;4933890;29;20415;-67
2021/08/27 09:52:08;;;;;;;5.00;1.13;;;25.30;54.60;;;;;;4933160;29;20494;-67
2021/08/27 09:54:40;;;;;;;3.58;1.13;;;25.30;55.00;;;;;;4925808;29;20399;-67
2021/08/27 09:57:07;;;;;;;2.92;1.08;;;25.40;55.20;;;;;;4933729;29;20494;-67
2021/08/27 09:59:39;;;;;;;6.40;1.50;;;25.40;54.80;;;;;;4934155;29;20391;-68
2021/08/27 10:02:24;;;;;;;4.97;1.30;;;25.40;54.50;;;;;;4952121;29;20403;-67
2021/08/27 10:04:55;;;;;;;3.08;1.10;;;25.30;54.20;;;;;;4937431;29;20482;-67
2021/08/27 10:07:27;;;;;;;3.38;1.00;;;25.30;53.80;;;;;;4935985;29;20922;-67
2021/08/27 10:09:53;;;;;;;4.00;1.03;;;25.30;53.40;;;;;;4936020;29;20481;-67
2021/08/27 10:12:19;;;;;;;3.60;1.30;;;25.40;53.30;;;;;;4937073;29;20394;-67
2021/08/27 10:14:45;;;;;;;2.75;1.08;;;25.40;53.10;;;;;;4925758;29;20484;-67
2021/08/27 10:17:13;;;;;;;2.75;1.13;;;25.40;53.60;;;;;;4917789;29;20413;-67
2021/08/27 10:19:39;;;;;;;2.58;1.00;;;25.30;52.80;;;;;;4917445;29;20492;-66
2021/08/27 10:22:05;;;;;;;2.60;0.90;;;25.40;52.80;;;;;;4917800;29;20496;-65
2021/08/27 10:24:31;;;;;;;3.28;0.80;;;25.40;52.50;;;;;;4917796;29;20421;-65
2021/08/27 10:26:59;;;;;;;1.83;0.70;;;25.40;52.40;;;;;;4917477;29;20401;-65
2021/08/27 10:29:25;;;;;;;3.08;1.00;;;25.40;51.90;;;;;;4917908;29;20420;-65
2021/08/27 10:31:51;;;;;;;2.03;0.88;;;25.40;52.30;;;;;;4917582;29;20393;-65
2021/08/27 10:34:37;;;;;;;1.83;0.73;;;25.30;52.10;;;;;;4917906;29;20401;-65
2021/08/27 10:37:03;;;;;;;2.33;0.77;;;25.30;52.10;;;;;;4917815;29;21037;-65
2021/08/27 10:39:40;;;;;;;1.57;0.80;;;25.30;51.90;;;;;;4917553;29;20410;-65
2021/08/27 10:42:08;;;;;;;1.88;0.73;;;25.30;51.90;;;;;;4917848;29;20413;-66
2021/08/27 10:44:52;;;;;;;2.00;0.65;;;25.30;51.70;;;;;;4917718;29;20960;-65
2021/08/27 10:47:19;;;;;;;1.80;0.73;;;25.30;51.80;;;;;;4917670;29;20409;-67
2021/08/27 10:49:45;;;;;;;2.00;0.80;;;25.30;51.60;;;;;;4917289;29;20898;-67
2021/08/27 10:52:28;;;;;;;3.50;0.70;;;25.40;51.40;;;;;;4917429;29;20421;-67
2021/08/27 10:55:03;;;;;;;1.08;0.60;;;25.40;51.70;;;;;;4917414;29;20405;-67
2021/08/27 10:57:41;;;;;;;2.25;0.60;;;25.40;51.30;;;;;;4917144;29;20401;-67
2021/08/27 11:00:08;;;;;;;17.00;1.40;;;25.40;51.10;;;;;;4917508;29;20799;-67
2021/08/27 11:02:53;;;;;;;8.07;0.90;;;25.40;51.30;;;;;;4916997;29;20405;-67
2021/08/27 11:05:37;;;;;;;6.10;0.98;;;25.40;51.00;;;;;;4917394;29;20810;-67
2021/08/27 11:08:05;;;;;;;7.33;1.10;;;25.40;51.50;;;;;;4936194;29;20418;-67
2021/08/27 11:10:32;;;;;;;4.93;0.80;;;25.40;51.40;;;;;;4935370;29;20399;-67
2021/08/27 11:13:00;;;;;;;5.00;0.82;;;25.50;51.60;;;;;;4935519;29;20399;-67
2021/08/27 11:15:31;;;;;;;4.85;1.10;;;25.40;51.70;;;;;;4935881;29;20504;-67
2021/08/27 11:18:15;;;;;;;5.30;0.80;;;25.40;51.20;;;;;;4936125;29;20388;-67
2021/08/27 11:20:41;;;;;;;4.38;1.08;;;25.50;51.80;;;;;;4936004;29;20388;-67
2021/08/27 11:23:07;;;;;;;2.27;0.80;;;25.40;52.30;;;;;;4935829;29;20438;-67
2021/08/27 11:25:33;;;;;;;3.33;0.88;;;25.50;54.50;;;;;;4935408;29;20784;-67
2021/08/27 11:28:15;;;;;;;3.00;0.80;;;25.60;54.20;;;;;;4935660;29;20935;-67
2021/08/27 11:31:01;;;;;;;2.40;0.70;;;25.70;54.40;;;;;;4935915;29;20404;-67
2021/08/27 11:33:47;;;;;;;3.22;0.80;;;25.70;55.50;;;;;;4935678;29;20935;-66
2021/08/27 11:36:17;;;;;;;3.03;0.80;;;25.70;55.20;;;;;;4935395;29;20483;-67
2021/08/27 11:38:43;;;;;;;3.55;0.70;;;25.70;55.50;;;;;;4934470;29;20404;-67
2021/08/27 11:41:09;;;;;;;3.38;0.68;;;25.60;54.00;;;;;;4935581;29;20403;-67
2021/08/27 11:43:47;;;;;;;4.03;0.70;;;25.70;53.20;;;;;;4949925;29;20428;-67
2021/08/27 11:46:24;;;;;;;3.20;0.60;;;25.70;53.60;;;;;;4935601;29;20884;-67
2021/08/27 11:48:59;;;;;;;2.20;0.73;;;25.70;53.50;;;;;;4935624;29;20489;-67
2021/08/27 11:52:00;;;;;;;3.75;0.77;;;25.70;53.20;;;;;;4934345;29;20403;-67
2021/08/27 11:54:26;;;;;;;1.63;0.70;;;25.70;52.90;;;;;;4925038;29;20414;-67
2021/08/27 11:56:53;;;;;;;2.30;0.60;;;25.70;53.10;;;;;;4935152;29;20387;-68
2021/08/27 11:59:26;;;;;;;4.50;0.68;;;25.70;53.00;;;;;;4935422;29;20436;-67
2021/08/27 12:01:56;;;;;;;4.05;0.77;;;25.70;53.00;;;;;;4934889;29;20399;-67
2021/08/27 12:04:33;;;;;;;1.43;0.50;;;25.70;53.50;;;;;;4935314;29;20464;-67
2021/08/27 12:07:13;;;;;;;4.00;0.80;;;25.70;52.80;;;;;;4934647;29;20406;-66
2021/08/27 12:09:42;;;;;;;2.92;0.57;;;25.60;51.90;;;;;;4936284;29;20399;-67
2021/08/27 12:12:32;;;;;;;6.00;0.70;;;25.60;52.80;;;;;;4934642;29;20399;-67
2021/08/27 12:15:00;;;;;;;6.85;0.95;;;25.70;53.00;;;;;;4935184;29;20459;-66
2021/08/27 12:17:28;;;;;;;3.92;0.80;;;25.70;52.70;;;;;;4935124;29;20505;-66
2021/08/27 12:19:57;;;;;;;3.00;0.70;;;25.70;52.30;;;;;;4934571;29;20903;-66
2021/08/27 12:22:27;;;;;;;4.00;0.80;;;25.70;52.50;;;;;;4933217;29;20827;-66
2021/08/27 12:24:54;;;;;;;3.00;0.73;;;25.70;52.50;;;;;;4933849;29;20479;-66
2021/08/27 12:27:22;;;;;;;4.95;0.80;;;25.70;52.60;;;;;;4933820;29;20415;-66
2021/08/27 12:30:11;;;;;;;1.70;0.60;;;25.80;52.70;;;;;;4948312;29;20400;-67
2021/08/27 12:32:40;;;;;;;7.70;0.90;;;25.80;52.80;;;;;;4930453;29;20414;-67
2021/08/27 12:35:08;;;;;;;1.73;0.70;;;25.80;52.40;;;;;;4922891;29;20847;-67
2021/08/27 12:37:38;;;;;;;1.70;0.40;;;25.80;52.20;;;;;;4922967;29;20949;-67
2021/08/27 12:40:12;;;;;;;2.95;0.52;;;25.80;52.10;;;;;;4934392;29;20399;-66
2021/08/27 12:42:38;;;;;;;3.72;0.75;;;25.80;52.30;;;;;;4934460;29;20407;-67
2021/08/27 12:45:06;;;;;;;1.95;0.60;;;25.70;52.10;;;;;;4933298;29;20407;-66
2021/08/27 12:47:41;;;;;;;2.00;0.50;;;25.80;51.70;;;;;;4934437;29;20481;-67
2021/08/27 12:50:14;;;;;;;2.55;0.50;;;25.80;51.60;;;;;;4933027;29;20744;-67
2021/08/27 12:52:59;;;;;;;1.92;0.60;;;25.80;51.70;;;;;;4933188;29;20407;-67
2021/08/27 12:55:28;;;;;;;1.67;0.50;;;25.70;51.50;;;;;;4934481;29;20482;-67
2021/08/27 12:57:54;;;;;;;2.42;0.45;;;25.70;51.50;;;;;;4933708;29;20415;-67
2021/08/27 13:00:25;;;;;;;2.20;0.70;;;25.70;51.50;;;;;;4934207;29;20400;-67
2021/08/27 13:02:52;;;;;;;1.98;0.50;;;25.70;51.40;;;;;;4934272;29;20418;-67
2021/08/27 13:05:38;;;;;;;2.45;0.47;;;25.70;51.40;;;;;;4932766;29;20420;-67